Time;durP1;ratioP1;P1;durP2;ratioP2;P2;SDS_P1;SDS_P2;PMS_P1;PMS_P2;Temp;Humidity;BMP_temperature;BMP_pressure;BME280_temperature;BME280_humidity;BME280_pressure;Samples;Min_cycle;Max_cycle;Signal;HPM_P1;HPM_P2
2023/01/18 00:00:52;;;;;;;7.10;3.13;;;-0.70;99.90;;;;;;4863228;29;20279;-87
2023/01/18 00:03:17;;;;;;;6.23;2.70;;;-0.70;99.90;;;;;;4862949;29;20204;-87
2023/01/18 00:05:43;;;;;;;4.50;2.87;;;-0.70;99.90;;;;;;4846575;29;20635;-86
2023/01/18 00:08:11;;;;;;;4.80;2.80;;;-0.70;99.90;;;;;;4846320;29;20184;-86
2023/01/18 00:10:36;;;;;;;5.97;2.77;;;-0.70;99.90;;;;;;4846488;29;20209;-86
2023/01/18 00:13:03;;;;;;;5.97;2.90;;;-0.60;99.90;;;;;;4846179;29;20188;-86
2023/01/18 00:15:30;;;;;;;6.23;3.30;;;-0.60;99.90;;;;;;4846372;29;20185;-86
2023/01/18 00:17:56;;;;;;;6.73;3.00;;;-0.70;99.90;;;;;;4846336;29;20305;-86
2023/01/18 00:20:24;;;;;;;6.00;3.43;;;-0.60;99.90;;;;;;4846366;29;20621;-86
2023/01/18 00:22:50;;;;;;;6.03;3.03;;;-0.60;99.90;;;;;;4862792;29;20307;-87
2023/01/18 00:25:20;;;;;;;7.93;3.43;;;-0.70;99.90;;;;;;4846074;29;20224;-85
2023/01/18 00:27:50;;;;;;;5.40;2.90;;;-0.70;99.90;;;;;;4845794;29;20235;-85
2023/01/18 00:30:19;;;;;;;5.97;3.00;;;-0.60;99.90;;;;;;4845933;29;20629;-84
2023/01/18 00:32:45;;;;;;;4.73;3.13;;;-0.70;99.90;;;;;;4846039;29;20185;-86
2023/01/18 00:35:11;;;;;;;6.57;3.27;;;-0.70;99.90;;;;;;4862500;29;20298;-87
2023/01/18 00:37:37;;;;;;;6.20;3.37;;;-0.80;99.90;;;;;;4846024;29;20193;-85
2023/01/18 00:40:05;;;;;;;5.03;2.83;;;-0.80;99.90;;;;;;4846207;29;20188;-85
2023/01/18 00:45:16;;;;;;;9.43;3.17;;;-0.90;99.90;;;;;;4862643;29;20180;-85
2023/01/18 00:47:42;;;;;;;5.33;3.10;;;-0.90;99.90;;;;;;4862408;29;20180;-85
2023/01/18 00:50:08;;;;;;;12.10;3.70;;;-0.90;99.90;;;;;;4862221;29;20189;-85
2023/01/18 00:52:34;;;;;;;5.43;3.00;;;-1.10;99.90;;;;;;4862219;29;20566;-88
2023/01/18 00:55:04;;;;;;;6.50;2.93;;;-1.00;99.90;;;;;;4860790;29;20188;-88
2023/01/18 00:57:30;;;;;;;4.63;2.90;;;-1.00;99.90;;;;;;4861878;29;20181;-85
2023/01/18 00:59:56;;;;;;;7.37;3.50;;;-1.00;99.90;;;;;;4845762;29;20667;-85
2023/01/18 01:02:21;;;;;;;6.30;3.10;;;-1.10;99.90;;;;;;4862059;29;20207;-87
2023/01/18 01:07:32;;;;;;;5.90;3.00;;;-1.20;99.90;;;;;;4862318;29;20205;-87
2023/01/18 01:09:57;;;;;;;6.60;3.03;;;-1.20;99.90;;;;;;4845409;29;20188;-84
2023/01/18 01:26:10;;;;;;;7.57;3.27;;;-1.00;99.90;;;;;;4862159;29;20220;-88
2023/01/18 01:28:41;;;;;;;6.33;3.00;;;-1.10;99.90;;;;;;4845685;29;20192;-88
2023/01/18 01:31:09;;;;;;;6.13;2.87;;;-1.10;99.90;;;;;;4845218;29;20184;-88
2023/01/18 01:33:39;;;;;;;4.20;2.70;;;-1.20;99.90;;;;;;4845264;29;20185;-87
2023/01/18 01:36:08;;;;;;;3.40;2.50;;;-1.20;99.90;;;;;;4860817;29;20188;-87
2023/01/18 01:38:34;;;;;;;5.73;3.10;;;-1.20;99.90;;;;;;4845284;29;20242;-88
2023/01/18 01:41:25;;;;;;;4.20;3.00;;;-1.20;99.90;;;;;;4845019;29;20217;-86
2023/01/18 01:44:01;;;;;;;4.57;3.03;;;-1.20;99.90;;;;;;4844538;29;20243;-87
2023/01/18 01:46:49;;;;;;;6.70;3.43;;;-1.30;99.90;;;;;;4845318;29;20643;-88
2023/01/18 01:49:15;;;;;;;4.73;2.60;;;-1.40;99.90;;;;;;4860610;29;20252;-88
2023/01/18 01:51:43;;;;;;;7.20;2.97;;;-1.50;99.90;;;;;;4845368;29;20605;-87
2023/01/18 01:54:24;;;;;;;6.10;3.00;;;-1.50;99.90;;;;;;4845070;29;20192;-88
2023/01/18 01:56:54;;;;;;;5.83;2.97;;;-1.60;99.90;;;;;;4861539;29;20506;-86
2023/01/18 01:59:20;;;;;;;4.97;3.00;;;-1.60;99.90;;;;;;4845190;29;20267;-87
2023/01/18 02:01:46;;;;;;;4.87;2.93;;;-1.60;99.90;;;;;;4845026;29;20208;-87
2023/01/18 02:04:12;;;;;;;6.30;3.40;;;-1.60;99.90;;;;;;4860401;29;20292;-87
2023/01/18 02:06:38;;;;;;;4.93;3.17;;;-1.70;99.90;;;;;;4845150;29;20199;-87
2023/01/18 02:09:12;;;;;;;6.60;3.17;;;-1.70;99.90;;;;;;4845318;29;20180;-86
2023/01/18 02:11:38;;;;;;;5.60;3.27;;;-1.70;99.90;;;;;;4861357;29;20620;-86
2023/01/18 02:14:09;;;;;;;6.03;3.03;;;-1.70;99.90;;;;;;4861548;29;20181;-85
2023/01/18 02:17:22;;;;;;;5.20;3.10;;;-1.80;99.90;;;;;;4861545;29;20192;-87
2023/01/18 02:20:07;;;;;;;6.43;3.50;;;-1.80;99.90;;;;;;4840468;29;20216;-86
2023/01/18 02:22:46;;;;;;;6.77;3.77;;;-1.80;99.90;;;;;;4845099;29;20235;-87
2023/01/18 02:25:53;;;;;;;8.83;3.30;;;-1.70;99.90;;;;;;4861415;29;20177;-88
2023/01/18 02:28:32;;;;;;;10.10;3.13;;;-1.70;99.90;;;;;;4804990;29;20204;-89
2023/01/18 02:31:16;;;;;;;11.20;3.30;;;-1.60;99.90;;;;;;4846179;29;20191;-89
2023/01/18 02:34:03;;;;;;;5.83;2.93;;;-1.60;99.90;;;;;;4848632;29;20187;-90
2023/01/18 02:36:41;;;;;;;6.57;3.33;;;-1.60;99.90;;;;;;4848422;29;20278;-89
2023/01/18 02:39:37;;;;;;;4.57;3.10;;;-1.70;99.90;;;;;;4848578;29;20206;-91
2023/01/18 02:48:35;;;;;;;6.37;3.20;;;-1.70;99.90;;;;;;4864810;29;20188;-88
2023/01/18 02:51:02;;;;;;;4.17;3.00;;;-1.70;99.90;;;;;;4864595;29;20187;-86
2023/01/18 02:53:29;;;;;;;6.43;3.87;;;-1.70;99.90;;;;;;4848082;29;20195;-86
2023/01/18 02:56:05;;;;;;;12.23;3.00;;;-1.70;99.90;;;;;;4848034;29;20184;-89
2023/01/18 02:58:48;;;;;;;10.80;3.63;;;-1.80;99.90;;;;;;4847775;29;20194;-89
2023/01/18 03:01:35;;;;;;;5.97;3.20;;;-1.80;99.90;;;;;;4847978;29;20518;-87
2023/01/18 03:04:15;;;;;;;12.23;3.47;;;-1.80;99.90;;;;;;4847781;29;20270;-89
2023/01/18 03:06:46;;;;;;;6.13;3.13;;;-1.70;99.90;;;;;;4864232;29;20622;-89
2023/01/18 03:09:17;;;;;;;9.60;3.70;;;-1.70;99.90;;;;;;4864451;29;20512;-88
2023/01/18 03:12:07;;;;;;;8.20;3.60;;;-1.70;99.90;;;;;;4863012;29;20243;-89
2023/01/18 03:14:38;;;;;;;11.70;3.40;;;-1.70;99.90;;;;;;4864194;29;20165;-88
2023/01/18 03:17:27;;;;;;;5.13;2.87;;;-1.60;99.90;;;;;;4847787;29;20184;-89
2023/01/18 03:20:06;;;;;;;9.07;3.63;;;-1.60;99.90;;;;;;5300654;23;20308;-86
2023/01/18 03:25:32;;;;;;;6.50;3.30;;;-1.60;99.90;;;;;;4864667;29;20183;-90
2023/01/18 03:33:44;;;;;;;8.60;3.63;;;-1.60;99.90;;;;;;4864624;29;20180;-90
2023/01/18 03:36:32;;;;;;;6.63;3.43;;;-1.60;99.90;;;;;;4848018;29;20184;-91
2023/01/18 03:39:09;;;;;;;4.00;2.73;;;-1.60;99.90;;;;;;4862904;29;20192;-85
2023/01/18 03:41:42;;;;;;;4.33;3.00;;;-1.60;99.90;;;;;;4862469;29;20179;-85
2023/01/18 03:44:17;;;;;;;8.47;3.53;;;-1.60;99.90;;;;;;4862977;29;20212;-85
2023/01/18 03:46:43;;;;;;;4.67;3.00;;;-1.60;99.90;;;;;;4847211;29;20648;-84
2023/01/18 03:49:10;;;;;;;4.60;2.87;;;-1.70;99.90;;;;;;4863457;29;20224;-84
2023/01/18 03:51:48;;;;;;;6.20;3.37;;;-1.70;99.90;;;;;;4863173;29;20177;-84
2023/01/18 03:54:48;;;;;;;6.70;2.97;;;-1.70;99.90;;;;;;4862894;29;20169;-84
2023/01/18 03:57:30;;;;;;;6.80;3.47;;;-1.80;99.90;;;;;;4825337;29;20197;-84
2023/01/18 03:59:56;;;;;;;6.30;3.03;;;-1.90;99.90;;;;;;4862182;29;20251;-85
2023/01/18 04:02:22;;;;;;;9.57;3.23;;;-2.00;99.90;;;;;;4863186;29;20227;-83
2023/01/18 04:04:48;;;;;;;7.13;3.13;;;-2.10;99.90;;;;;;4846421;29;20233;-85
2023/01/18 04:07:14;;;;;;;5.07;2.90;;;-2.20;99.90;;;;;;4862877;29;20520;-84
2023/01/18 04:09:40;;;;;;;4.03;2.97;;;-2.10;99.90;;;;;;4863354;29;20194;-89
2023/01/18 04:12:06;;;;;;;6.93;3.03;;;-2.00;99.90;;;;;;4863427;29;20572;-88
2023/01/18 04:14:32;;;;;;;6.30;3.03;;;-2.00;99.90;;;;;;4846863;29;20259;-86
2023/01/18 04:16:57;;;;;;;5.70;2.87;;;-1.90;99.90;;;;;;4846920;29;20219;-88
2023/01/18 04:19:23;;;;;;;5.07;3.00;;;-1.90;99.90;;;;;;4846659;29;20188;-89
2023/01/18 04:21:50;;;;;;;7.70;3.20;;;-1.90;99.90;;;;;;4860718;29;20235;-84
2023/01/18 04:24:16;;;;;;;6.33;3.03;;;-1.90;99.90;;;;;;4861473;29;20283;-85
2023/01/18 04:26:41;;;;;;;5.00;3.03;;;-1.90;99.90;;;;;;4861570;29;20272;-85
2023/01/18 04:29:07;;;;;;;7.20;2.83;;;-1.80;99.90;;;;;;4861753;29;20526;-85
2023/01/18 04:31:33;;;;;;;5.27;2.63;;;-1.80;99.90;;;;;;4862760;29;20225;-84
2023/01/18 04:33:59;;;;;;;8.73;3.23;;;-1.80;99.90;;;;;;4862408;29;20177;-84
2023/01/18 04:36:25;;;;;;;4.53;2.40;;;-1.80;99.90;;;;;;4861178;29;20199;-84
2023/01/18 04:38:54;;;;;;;5.27;2.80;;;-1.90;99.90;;;;;;4861494;29;20185;-89
2023/01/18 04:41:21;;;;;;;5.17;2.70;;;-1.80;99.90;;;;;;4855024;29;20364;-86
2023/01/18 04:43:46;;;;;;;6.57;2.57;;;-1.80;99.90;;;;;;4858233;29;20225;-85
2023/01/18 04:46:14;;;;;;;4.33;2.47;;;-1.90;99.90;;;;;;4843168;29;20185;-87
2023/01/18 04:48:40;;;;;;;5.40;3.07;;;-1.90;99.90;;;;;;4844487;29;20177;-87
2023/01/18 04:51:11;;;;;;;7.10;2.77;;;-1.90;99.90;;;;;;4876371;29;20283;-87
2023/01/18 04:53:37;;;;;;;5.80;2.90;;;-1.90;99.90;;;;;;4861672;29;20196;-89
2023/01/18 04:56:03;;;;;;;9.07;3.03;;;-1.90;99.90;;;;;;4859112;29;20200;-89
2023/01/18 04:58:28;;;;;;;12.33;3.13;;;-1.90;99.90;;;;;;4861597;29;20682;-88
2023/01/18 05:00:54;;;;;;;3.37;2.53;;;-2.00;99.90;;;;;;4861705;29;20216;-87
2023/01/18 05:03:21;;;;;;;5.20;2.60;;;-1.90;99.90;;;;;;4862882;29;20244;-89
2023/01/18 05:05:46;;;;;;;4.87;2.90;;;-2.00;99.90;;;;;;4861806;29;20176;-87
2023/01/18 05:08:12;;;;;;;7.23;2.90;;;-2.20;99.90;;;;;;4861974;29;20202;-88
2023/01/18 05:10:37;;;;;;;4.13;2.77;;;-2.20;99.90;;;;;;4862836;29;20207;-84
2023/01/18 05:13:03;;;;;;;3.97;2.53;;;-2.10;99.90;;;;;;4862447;29;20187;-90
2023/01/18 05:15:29;;;;;;;6.17;2.83;;;-2.00;99.90;;;;;;4862413;29;20250;-90
2023/01/18 05:17:55;;;;;;;4.53;2.53;;;-2.00;99.90;;;;;;4861277;29;20192;-88
2023/01/18 05:20:20;;;;;;;9.10;3.07;;;-2.10;99.90;;;;;;4861114;29;20238;-87
2023/01/18 05:22:46;;;;;;;9.47;3.13;;;-2.10;99.90;;;;;;4861259;29;20220;-85
2023/01/18 05:25:12;;;;;;;5.07;3.00;;;-2.10;99.90;;;;;;4861450;29;20615;-89
2023/01/18 05:27:37;;;;;;;7.27;3.30;;;-2.10;99.90;;;;;;4861424;29;20192;-90
2023/01/18 05:30:03;;;;;;;9.63;3.00;;;-2.20;99.90;;;;;;4861547;29;20192;-92
2023/01/18 05:32:31;;;;;;;8.07;3.30;;;-2.20;99.90;;;;;;4861316;29;20597;-92
2023/01/18 05:34:57;;;;;;;9.07;3.23;;;-2.10;99.90;;;;;;4861011;29;20179;-91
2023/01/18 05:37:23;;;;;;;4.07;2.60;;;-2.10;99.90;;;;;;4879393;29;20191;-89
2023/01/18 05:39:48;;;;;;;8.60;3.47;;;-2.10;99.90;;;;;;4881056;29;20247;-90
2023/01/18 05:42:15;;;;;;;6.57;2.70;;;-2.10;99.90;;;;;;4879895;29;20547;-91
2023/01/18 05:44:41;;;;;;;5.17;2.70;;;-2.10;99.90;;;;;;4880869;29;20183;-90
2023/01/18 05:47:06;;;;;;;5.37;2.90;;;-2.00;99.90;;;;;;4879796;29;20198;-88
2023/01/18 05:49:32;;;;;;;7.27;2.70;;;-2.10;99.90;;;;;;4879611;29;20232;-86
2023/01/18 05:51:58;;;;;;;5.00;2.70;;;-2.10;99.90;;;;;;4881063;29;20187;-89
2023/01/18 05:54:23;;;;;;;3.83;2.50;;;-2.10;99.90;;;;;;4880932;29;20176;-89
2023/01/18 05:56:49;;;;;;;4.63;2.60;;;-2.20;99.90;;;;;;4868873;29;20621;-92
2023/01/18 05:59:15;;;;;;;4.97;2.97;;;-2.10;99.90;;;;;;4878944;29;20264;-91
2023/01/18 06:01:41;;;;;;;10.43;3.37;;;-2.10;99.90;;;;;;4881031;29;20180;-91
2023/01/18 06:04:07;;;;;;;5.80;2.70;;;-2.10;99.90;;;;;;4879278;29;20230;-89
2023/01/18 06:06:33;;;;;;;7.03;3.37;;;-2.10;99.90;;;;;;4881424;29;20593;-91
2023/01/18 06:09:00;;;;;;;7.70;3.37;;;-2.10;99.90;;;;;;4884556;29;20267;-91
2023/01/18 06:11:26;;;;;;;3.50;2.33;;;-2.10;99.90;;;;;;4883313;29;20195;-90
2023/01/18 06:13:53;;;;;;;5.20;2.70;;;-2.10;99.90;;;;;;4883198;29;20299;-88
2023/01/18 06:16:18;;;;;;;5.60;3.07;;;-2.20;99.90;;;;;;4884581;29;20168;-91
2023/01/18 06:18:44;;;;;;;3.07;2.30;;;-2.20;99.90;;;;;;4882950;29;20259;-90
2023/01/18 06:21:10;;;;;;;8.03;2.93;;;-2.20;99.90;;;;;;4860545;29;20350;-86
2023/01/18 06:23:43;;;;;;;5.63;2.83;;;-2.20;99.90;;;;;;4865400;29;20582;-87
2023/01/18 06:26:09;;;;;;;7.23;3.00;;;-2.20;99.90;;;;;;4841522;29;20200;-89
2023/01/18 06:28:34;;;;;;;9.07;3.10;;;-2.10;99.90;;;;;;4846907;29;20559;-87
2023/01/18 06:31:03;;;;;;;3.50;2.57;;;-2.10;99.90;;;;;;4830317;29;20192;-85
2023/01/18 06:33:29;;;;;;;5.47;2.90;;;-2.10;99.90;;;;;;4846766;29;20185;-89
2023/01/18 06:35:55;;;;;;;4.73;2.97;;;-2.20;99.90;;;;;;4846690;29;20189;-90
2023/01/18 06:38:20;;;;;;;3.80;2.87;;;-2.20;99.90;;;;;;4830310;29;20209;-91
2023/01/18 06:40:46;;;;;;;7.90;2.97;;;-2.30;99.90;;;;;;4830356;29;20196;-89
2023/01/18 06:43:12;;;;;;;4.47;2.70;;;-2.30;99.90;;;;;;4846598;29;20221;-85
2023/01/18 06:45:39;;;;;;;4.97;3.10;;;-2.20;99.90;;;;;;4830238;29;20182;-92
2023/01/18 06:48:05;;;;;;;7.10;3.80;;;-2.20;99.90;;;;;;4846784;29;20181;-85
2023/01/18 06:50:31;;;;;;;8.40;2.90;;;-2.10;99.90;;;;;;4828965;29;20193;-89
2023/01/18 06:53:00;;;;;;;5.33;3.27;;;-2.10;99.90;;;;;;4830003;29;20202;-92
2023/01/18 06:55:25;;;;;;;6.23;3.10;;;-2.00;99.90;;;;;;4829260;29;20538;-88
2023/01/18 06:57:51;;;;;;;5.23;2.60;;;-2.00;99.90;;;;;;4846184;29;20189;-92
2023/01/18 07:00:17;;;;;;;5.93;2.93;;;-2.00;99.90;;;;;;4829283;29;20189;-88
2023/01/18 07:02:44;;;;;;;7.97;3.20;;;-2.00;99.90;;;;;;4829969;29;20213;-88
2023/01/18 07:05:09;;;;;;;4.97;2.80;;;-2.00;99.90;;;;;;4829838;29;20565;-86
2023/01/18 07:07:35;;;;;;;4.33;2.87;;;-2.00;99.90;;;;;;4829137;29;20186;-87
2023/01/18 07:10:01;;;;;;;6.50;3.23;;;-2.00;99.90;;;;;;4829375;29;20580;-88
2023/01/18 07:12:26;;;;;;;7.23;3.00;;;-2.10;99.90;;;;;;4829555;29;20218;-86
2023/01/18 07:14:52;;;;;;;4.77;2.90;;;-2.20;99.90;;;;;;4829450;29;20326;-88
2023/01/18 07:17:18;;;;;;;7.30;3.53;;;-2.20;99.90;;;;;;4828846;29;20199;-84
2023/01/18 07:19:44;;;;;;;12.70;3.73;;;-2.20;99.90;;;;;;4847425;29;20620;-91
2023/01/18 07:22:09;;;;;;;3.27;2.77;;;-2.30;99.90;;;;;;4864390;29;20240;-90
2023/01/18 07:24:47;;;;;;;4.27;2.67;;;-2.30;99.90;;;;;;4864167;29;20196;-85
2023/01/18 07:27:16;;;;;;;5.27;3.10;;;-2.30;99.90;;;;;;4847782;29;20184;-90
2023/01/18 07:29:41;;;;;;;5.30;3.00;;;-2.30;99.90;;;;;;4864426;29;20189;-90
2023/01/18 07:32:07;;;;;;;5.17;2.83;;;-2.20;99.90;;;;;;4864408;29;20194;-90
2023/01/18 07:34:35;;;;;;;5.20;3.10;;;-2.10;99.90;;;;;;4847744;29;20199;-92
2023/01/18 07:37:00;;;;;;;4.83;2.73;;;-2.20;99.90;;;;;;4864403;29;20243;-87
2023/01/18 07:39:26;;;;;;;3.90;2.70;;;-2.20;99.90;;;;;;4863767;29;20358;-91
2023/01/18 07:41:52;;;;;;;5.70;2.90;;;-2.10;99.90;;;;;;4846989;29;20264;-91
2023/01/18 07:44:17;;;;;;;6.30;3.37;;;-2.20;99.90;;;;;;4864097;29;20720;-86
2023/01/18 07:46:43;;;;;;;6.80;3.10;;;-2.30;99.90;;;;;;4864250;29;20205;-88
2023/01/18 07:49:09;;;;;;;4.70;2.70;;;-2.30;99.90;;;;;;4847551;29;20240;-89
2023/01/18 07:51:35;;;;;;;5.77;3.40;;;-2.30;99.90;;;;;;4847743;29;20185;-86
2023/01/18 07:54:01;;;;;;;11.50;3.13;;;-2.20;99.90;;;;;;4863860;29;20209;-86
2023/01/18 07:56:27;;;;;;;7.87;3.73;;;-2.10;99.90;;;;;;4847143;29;20220;-88
2023/01/18 07:58:53;;;;;;;7.47;3.87;;;-2.10;99.90;;;;;;4863975;29;20267;-89
2023/01/18 08:01:21;;;;;;;7.93;4.10;;;-2.10;99.90;;;;;;4863956;29;20233;-87
2023/01/18 08:03:48;;;;;;;9.30;4.67;;;-2.10;99.90;;;;;;4847393;29;20216;-91
2023/01/18 08:06:17;;;;;;;8.50;4.70;;;-2.00;99.90;;;;;;4863796;29;20184;-91
2023/01/18 08:08:43;;;;;;;12.30;4.63;;;-2.00;99.90;;;;;;4863755;29;20207;-89
2023/01/18 08:11:09;;;;;;;6.93;4.30;;;-1.90;99.90;;;;;;4846596;29;20619;-87
2023/01/18 08:13:38;;;;;;;10.00;3.97;;;-1.90;99.90;;;;;;4846879;29;20224;-91
2023/01/18 08:16:07;;;;;;;7.90;3.63;;;-1.90;99.90;;;;;;4864043;29;20173;-92
2023/01/18 08:18:32;;;;;;;13.77;4.13;;;-1.90;99.90;;;;;;4863976;29;20177;-90
2023/01/18 08:20:58;;;;;;;5.27;3.40;;;-1.90;99.90;;;;;;4855211;29;20248;-91
2023/01/18 08:23:27;;;;;;;6.17;3.43;;;-1.80;99.90;;;;;;4862479;29;20216;-91
2023/01/18 08:25:54;;;;;;;8.53;3.60;;;-1.80;99.90;;;;;;4863754;29;20188;-92
2023/01/18 08:28:21;;;;;;;5.37;3.50;;;-1.70;99.90;;;;;;4863373;29;20284;-91
2023/01/18 08:30:47;;;;;;;6.20;3.30;;;-1.80;99.90;;;;;;4862763;29;20189;-91
2023/01/18 08:33:13;;;;;;;6.37;3.43;;;-1.70;99.90;;;;;;4863689;29;20200;-92
2023/01/18 08:35:44;;;;;;;6.27;3.83;;;-1.60;99.90;;;;;;4862579;29;20181;-92
2023/01/18 08:38:12;;;;;;;4.97;3.10;;;-1.60;99.90;;;;;;4862436;29;20198;-85
2023/01/18 08:40:39;;;;;;;5.77;3.10;;;-1.50;99.90;;;;;;4862448;29;20192;-91
2023/01/18 08:43:09;;;;;;;8.87;3.43;;;-1.50;99.90;;;;;;4861968;29;20219;-91
2023/01/18 08:45:35;;;;;;;4.97;3.03;;;-1.50;99.90;;;;;;4863523;29;20181;-86
2023/01/18 08:48:03;;;;;;;8.40;4.03;;;-1.40;99.90;;;;;;4862391;29;20191;-89
2023/01/18 08:50:30;;;;;;;7.57;4.30;;;-1.40;99.90;;;;;;4862034;29;20640;-91
2023/01/18 08:52:58;;;;;;;6.43;3.47;;;-1.30;99.90;;;;;;4862134;29;20188;-90
2023/01/18 08:55:26;;;;;;;7.87;3.70;;;-1.30;99.90;;;;;;4862103;29;20188;-90
2023/01/18 08:57:56;;;;;;;6.80;3.73;;;-1.30;99.90;;;;;;4862743;29;20184;-87
2023/01/18 09:00:29;;;;;;;5.93;3.50;;;-1.30;99.90;;;;;;4862836;29;20684;-86
2023/01/18 09:02:55;;;;;;;5.73;3.70;;;-1.20;99.90;;;;;;4861525;29;20205;-85
2023/01/18 09:05:23;;;;;;;7.60;3.70;;;-1.20;99.90;;;;;;4861578;29;20195;-86
2023/01/18 09:07:51;;;;;;;5.47;3.40;;;-1.20;99.90;;;;;;4862836;29;20309;-89
2023/01/18 09:10:17;;;;;;;6.63;3.70;;;-1.10;99.90;;;;;;4862614;29;20180;-89
2023/01/18 09:12:42;;;;;;;9.90;4.70;;;-1.10;99.90;;;;;;4862380;29;20184;-89
2023/01/18 09:15:17;;;;;;;11.10;5.40;;;-1.10;99.90;;;;;;4862486;29;20656;-92
2023/01/18 09:17:42;;;;;;;7.97;4.00;;;-1.10;99.90;;;;;;4861347;29;20233;-92
2023/01/18 09:20:10;;;;;;;5.77;3.87;;;-1.10;99.90;;;;;;4854971;29;20292;-86
2023/01/18 09:22:36;;;;;;;10.80;4.57;;;-1.00;99.90;;;;;;4827601;29;20771;-91
2023/01/18 09:25:05;;;;;;;8.13;4.20;;;-1.00;99.90;;;;;;4843879;29;20272;-90
2023/01/18 09:27:31;;;;;;;8.83;3.93;;;-0.90;99.90;;;;;;4827412;29;20319;-85
2023/01/18 09:29:57;;;;;;;8.57;4.43;;;-1.00;99.90;;;;;;4843909;29;20181;-83
2023/01/18 09:32:24;;;;;;;9.53;4.37;;;-0.90;99.90;;;;;;4843828;29;20185;-88
2023/01/18 09:34:52;;;;;;;8.13;4.23;;;-0.90;99.90;;;;;;4827300;29;20196;-89
2023/01/18 09:37:18;;;;;;;7.47;4.20;;;-0.80;99.90;;;;;;4843893;29;20176;-89
2023/01/18 09:39:43;;;;;;;7.90;4.60;;;-0.80;99.90;;;;;;4827269;29;20185;-84
2023/01/18 09:42:36;;;;;;;7.40;4.33;;;-0.80;99.90;;;;;;4826650;29;20195;-84
2023/01/18 09:45:03;;;;;;;8.63;4.43;;;-0.70;99.90;;;;;;4843213;29;20280;-83
2023/01/18 09:47:45;;;;;;;10.07;4.30;;;-0.70;99.90;;;;;;4827193;29;20214;-88
2023/01/18 09:50:19;;;;;;;13.30;4.83;;;-0.60;99.90;;;;;;4843670;29;20200;-84
2023/01/18 09:52:54;;;;;;;8.40;4.67;;;-0.60;99.90;;;;;;4826889;29;20613;-84
2023/01/18 09:55:27;;;;;;;12.20;5.00;;;-0.60;99.90;;;;;;4827142;29;20180;-84
2023/01/18 09:58:22;;;;;;;10.97;5.00;;;-0.50;99.90;;;;;;4826794;29;20192;-83
2023/01/18 10:00:48;;;;;;;12.97;5.27;;;-0.50;99.90;;;;;;4827004;29;20185;-84
2023/01/18 10:03:18;;;;;;;10.07;4.60;;;-0.50;99.90;;;;;;4826530;29;20209;-87
2023/01/18 10:06:07;;;;;;;17.57;5.83;;;-0.50;99.90;;;;;;4827018;29;20184;-84
2023/01/18 10:08:48;;;;;;;12.37;5.13;;;-0.50;99.90;;;;;;4843283;29;20177;-85
2023/01/18 10:11:43;;;;;;;12.60;5.43;;;-0.40;99.90;;;;;;4826805;29;20194;-85
2023/01/18 10:14:32;;;;;;;8.10;5.23;;;-0.40;99.90;;;;;;4826586;29;20590;-84
2023/01/18 10:17:04;;;;;;;15.87;5.37;;;-0.40;99.90;;;;;;4843239;29;20613;-85
2023/01/18 10:19:31;;;;;;;9.87;5.10;;;-0.30;99.90;;;;;;4826850;29;20182;-86
2023/01/18 10:22:15;;;;;;;7.83;4.70;;;-0.30;99.90;;;;;;4861273;29;20232;-84
2023/01/18 10:25:18;;;;;;;8.77;5.13;;;-0.30;99.90;;;;;;4860079;29;20192;-85
2023/01/18 10:27:53;;;;;;;8.50;4.70;;;-0.40;99.90;;;;;;4844839;29;20172;-91
2023/01/18 10:30:40;;;;;;;9.43;5.13;;;-0.40;99.90;;;;;;4844620;29;20176;-92
2023/01/18 10:33:21;;;;;;;6.93;5.07;;;-0.40;99.90;;;;;;4844665;29;20229;-84
2023/01/18 10:35:51;;;;;;;11.83;5.17;;;-0.30;99.90;;;;;;4844899;29;20205;-84
2023/01/18 10:38:22;;;;;;;10.67;5.07;;;-0.30;99.90;;;;;;4860378;29;20230;-85
2023/01/18 10:40:56;;;;;;;9.73;5.57;;;-0.30;99.90;;;;;;4843944;29;20192;-83
2023/01/18 10:43:24;;;;;;;10.73;6.07;;;-0.20;99.90;;;;;;4859821;29;20214;-84
2023/01/18 10:45:52;;;;;;;11.27;5.83;;;-0.20;99.90;;;;;;4859986;29;20185;-87
2023/01/18 10:48:30;;;;;;;11.00;5.63;;;-0.20;99.90;;;;;;4844694;29;20631;-93
2023/01/18 10:50:59;;;;;;;10.03;6.00;;;-0.20;99.90;;;;;;4861259;29;20508;-86
2023/01/18 10:53:35;;;;;;;9.43;6.07;;;-0.10;99.90;;;;;;4863194;29;20658;-86
2023/01/18 10:56:17;;;;;;;11.33;6.20;;;-0.10;99.90;;;;;;4864429;29;20666;-90
2023/01/18 10:58:58;;;;;;;18.80;6.33;;;-0.10;99.90;;;;;;4848106;29;20187;-89
2023/01/18 11:01:30;;;;;;;11.57;5.93;;;-0.10;99.90;;;;;;4848064;29;20212;-92
2023/01/18 11:04:06;;;;;;;13.50;6.63;;;0.00;99.90;;;;;;4863190;29;20261;-91
2023/01/18 11:07:02;;;;;;;14.73;6.67;;;0.00;99.90;;;;;;4864305;29;20172;-92
2023/01/18 11:09:54;;;;;;;9.80;5.93;;;0.10;99.90;;;;;;4865021;29;20258;-93
2023/01/18 11:12:33;;;;;;;10.17;5.93;;;0.10;99.90;;;;;;4848464;29;20645;-93
2023/01/18 11:15:18;;;;;;;13.07;6.57;;;0.30;99.90;;;;;;4864880;29;20169;-93
2023/01/18 11:17:53;;;;;;;10.87;6.20;;;0.30;99.90;;;;;;4848305;29;20173;-93
2023/01/18 11:20:22;;;;;;;10.43;6.23;;;0.30;99.90;;;;;;4842236;29;20558;-92
2023/01/18 11:22:59;;;;;;;13.10;6.40;;;0.40;99.90;;;;;;4829534;29;20353;-91
2023/01/18 11:25:38;;;;;;;12.93;7.07;;;0.40;99.90;;;;;;4829922;29;20265;-93
2023/01/18 11:28:12;;;;;;;9.57;6.33;;;0.50;99.90;;;;;;4846322;29;20177;-92
2023/01/18 11:30:55;;;;;;;17.87;6.77;;;0.60;99.90;;;;;;4829923;29;20177;-92
2023/01/18 11:33:24;;;;;;;14.40;5.93;;;0.60;99.90;;;;;;4829654;29;20260;-90
2023/01/18 11:36:01;;;;;;;11.80;6.70;;;0.70;99.90;;;;;;4846291;29;20212;-92
2023/01/18 11:38:30;;;;;;;11.80;6.07;;;0.70;99.90;;;;;;4829167;29;20694;-90
2023/01/18 11:41:13;;;;;;;10.57;6.13;;;0.80;99.90;;;;;;4846212;29;20192;-89
2023/01/18 11:44:12;;;;;;;12.83;6.20;;;0.90;99.90;;;;;;4829632;29;20223;-91
2023/01/18 11:46:54;;;;;;;11.20;6.20;;;0.90;99.90;;;;;;4809419;29;20193;-91
2023/01/18 11:49:41;;;;;;;12.40;6.73;;;1.00;99.90;;;;;;4829775;29;20200;-90
2023/01/18 11:52:50;;;;;;;13.27;6.10;;;1.10;99.90;;;;;;4829555;29;20193;-91
2023/01/18 11:55:31;;;;;;;9.73;5.87;;;1.20;99.90;;;;;;4831977;29;20224;-91
2023/01/18 11:57:58;;;;;;;7.23;5.37;;;1.40;99.90;;;;;;4829621;29;20177;-91
2023/01/18 12:00:27;;;;;;;12.43;6.07;;;1.60;99.90;;;;;;4829459;29;20178;-91
2023/01/18 12:03:14;;;;;;;13.03;6.07;;;1.70;99.90;;;;;;4828995;29;20219;-92
2023/01/18 12:05:44;;;;;;;9.50;5.47;;;1.80;99.90;;;;;;4829611;29;20196;-93
2023/01/18 12:08:39;;;;;;;10.10;5.43;;;1.90;99.90;;;;;;4829201;29;20177;-92
2023/01/18 12:11:16;;;;;;;11.80;5.87;;;1.90;99.90;;;;;;4826005;29;20189;-94
2023/01/18 12:14:04;;;;;;;9.83;5.63;;;2.00;99.90;;;;;;4847058;29;20170;-95
2023/01/18 12:17:00;;;;;;;8.13;5.07;;;2.00;99.90;;;;;;4832134;29;20680;-96
2023/01/18 12:19:54;;;;;;;9.23;4.80;;;2.00;99.90;;;;;;4831284;29;20218;-95
2023/01/18 12:22:47;;;;;;;9.27;4.53;;;2.10;99.90;;;;;;4856635;29;20225;-96
2023/01/18 12:25:25;;;;;;;8.10;4.90;;;2.20;99.90;;;;;;4850048;29;20276;-96
2023/01/18 12:28:21;;;;;;;8.83;4.03;;;2.30;99.90;;;;;;4835191;29;20185;-95
2023/01/18 12:30:54;;;;;;;10.27;4.30;;;2.40;99.90;;;;;;4839665;29;20205;-95
2023/01/18 12:33:40;;;;;;;7.33;4.27;;;2.30;99.90;;;;;;4829277;29;20193;-94
2023/01/18 12:36:44;;;;;;;6.57;4.20;;;2.30;99.90;;;;;;4829305;29;20598;-94
2023/01/18 12:39:27;;;;;;;9.87;4.93;;;2.40;99.90;;;;;;4829883;29;20185;-94
2023/01/18 12:42:04;;;;;;;6.33;4.37;;;2.30;99.90;;;;;;4835734;29;20205;-95
2023/01/18 12:44:51;;;;;;;10.90;4.67;;;2.30;99.90;;;;;;4837151;29;20209;-94
2023/01/18 12:47:26;;;;;;;10.10;5.27;;;2.20;99.90;;;;;;4839065;29;20183;-96
2023/01/18 12:49:58;;;;;;;9.53;5.13;;;2.20;99.90;;;;;;4848681;29;20216;-96
2023/01/18 12:52:31;;;;;;;8.70;5.33;;;2.10;99.90;;;;;;4859386;29;20209;-96
2023/01/18 12:55:15;;;;;;;8.00;5.17;;;2.00;99.90;;;;;;4842640;29;20202;-96
2023/01/18 12:57:44;;;;;;;10.90;5.70;;;2.00;99.90;;;;;;4845558;29;20181;-96
2023/01/18 13:00:16;;;;;;;8.93;5.07;;;1.90;99.90;;;;;;4842851;29;20189;-96
2023/01/18 13:02:50;;;;;;;8.73;5.20;;;1.90;99.90;;;;;;4840340;29;20221;-96
2023/01/18 13:05:52;;;;;;;9.70;5.33;;;2.00;99.90;;;;;;4823380;29;20205;-96
2023/01/18 13:08:55;;;;;;;11.43;6.07;;;2.00;99.90;;;;;;4838387;29;20177;-96
2023/01/18 13:11:34;;;;;;;12.93;6.10;;;2.00;99.90;;;;;;4835954;29;20261;-96
2023/01/18 13:14:35;;;;;;;8.37;5.37;;;1.90;99.90;;;;;;4828251;29;20195;-96
2023/01/18 13:17:14;;;;;;;9.00;5.77;;;2.00;99.90;;;;;;4828863;29;20200;-96
2023/01/18 13:19:57;;;;;;;11.83;5.43;;;2.00;99.90;;;;;;4833157;29;20189;-96
2023/01/18 13:22:36;;;;;;;12.77;5.80;;;2.00;99.90;;;;;;4849787;29;20223;-96
2023/01/18 13:25:26;;;;;;;10.63;6.70;;;2.00;99.90;;;;;;4850059;29;20345;-96
2023/01/18 13:28:02;;;;;;;13.50;6.40;;;2.10;99.90;;;;;;4848164;29;20192;-95
2023/01/18 13:30:33;;;;;;;12.27;5.93;;;2.10;99.90;;;;;;4847992;29;20196;-96
2023/01/18 13:33:10;;;;;;;12.47;6.60;;;2.10;99.90;;;;;;4846856;29;20183;-96
2023/01/18 13:36:18;;;;;;;12.43;5.73;;;2.30;99.90;;;;;;4863608;29;20172;-96
2023/01/18 13:38:53;;;;;;;13.33;6.37;;;2.40;99.90;;;;;;4861853;29;20224;-96
2023/01/18 13:41:28;;;;;;;11.33;5.87;;;2.40;99.90;;;;;;4862797;29;20191;-96
2023/01/18 13:44:28;;;;;;;10.60;6.00;;;2.40;99.90;;;;;;4846565;29;20222;-95
2023/01/18 13:47:01;;;;;;;13.43;4.63;;;2.30;99.90;;;;;;4845597;29;20183;-96